sensor_id;sensor_type;location;lat;lon;timestamp;pressure;altitude;pressure_sealevel;temperature;humidity
81931;BME280;71395;43.488;1.472;2023-10-13T00:00:56;99954.03;;;26.24;50.95
81931;BME280;71395;43.488;1.472;2023-10-13T00:03:23;99966.69;;;26.28;50.99
81931;BME280;71395;43.488;1.472;2023-10-13T00:05:50;99966.28;;;26.26;50.80
81931;BME280;71395;43.488;1.472;2023-10-13T00:08:18;99969.06;;;26.30;51.05
81931;BME280;71395;43.488;1.472;2023-10-13T00:10:45;99952.03;;;26.21;51.04
81931;BME280;71395;43.488;1.472;2023-10-13T00:13:12;99959.84;;;26.19;50.84
81931;BME280;71395;43.488;1.472;2023-10-13T00:15:47;99970.22;;;26.29;51.28
81931;BME280;71395;43.488;1.472;2023-10-13T00:18:23;99966.13;;;26.19;50.98
81931;BME280;71395;43.488;1.472;2023-10-13T00:20:51;99974.06;;;26.24;51.02
81931;BME280;71395;43.488;1.472;2023-10-13T00:23:17;99962.22;;;26.20;51.03
81931;BME280;71395;43.488;1.472;2023-10-13T00:25:49;99970.09;;;26.22;50.93
81931;BME280;71395;43.488;1.472;2023-10-13T00:28:18;99968.06;;;26.19;51.02
81931;BME280;71395;43.488;1.472;2023-10-13T00:30:51;99977.25;;;26.26;51.28
81931;BME280;71395;43.488;1.472;2023-10-13T00:33:18;99970.09;;;26.22;50.66
81931;BME280;71395;43.488;1.472;2023-10-13T00:35:49;99968.44;;;26.17;50.71
81931;BME280;71395;43.488;1.472;2023-10-13T00:38:17;99970.91;;;26.22;50.60
81931;BME280;71395;43.488;1.472;2023-10-13T00:40:45;99980.34;;;26.25;51.24
81931;BME280;71395;43.488;1.472;2023-10-13T00:43:21;99966.56;;;26.21;51.02
81931;BME280;71395;43.488;1.472;2023-10-13T00:48:45;99975.53;;;26.18;50.51
81931;BME280;71395;43.488;1.472;2023-10-13T00:51:17;99972.41;;;26.20;50.68
81931;BME280;71395;43.488;1.472;2023-10-13T00:54:05;99959.75;;;26.15;50.88
81931;BME280;71395;43.488;1.472;2023-10-13T00:56:40;99970.91;;;26.22;50.69
81931;BME280;71395;43.488;1.472;2023-10-13T00:59:13;99968.16;;;26.22;51.01
81931;BME280;71395;43.488;1.472;2023-10-13T01:01:39;99969.31;;;26.21;50.59
81931;BME280;71395;43.488;1.472;2023-10-13T01:04:08;99959.03;;;26.18;50.61
81931;BME280;71395;43.488;1.472;2023-10-13T01:06:37;99962.56;;;26.19;50.29
81931;BME280;71395;43.488;1.472;2023-10-13T01:09:05;99963.81;;;26.21;51.13
81931;BME280;71395;43.488;1.472;2023-10-13T01:11:50;99956.72;;;26.20;50.95
81931;BME280;71395;43.488;1.472;2023-10-13T01:14:19;99955.13;;;26.19;50.27
81931;BME280;71395;43.488;1.472;2023-10-13T01:16:47;99950.78;;;26.18;50.98
81931;BME280;71395;43.488;1.472;2023-10-13T01:19:16;99947.63;;;26.16;50.71
81931;BME280;71395;43.488;1.472;2023-10-13T01:21:50;99945.66;;;26.17;50.34
81931;BME280;71395;43.488;1.472;2023-10-13T01:24:20;99915.88;;;25.99;50.61
81931;BME280;71395;43.488;1.472;2023-10-13T01:26:49;99936.19;;;26.14;50.24
81931;BME280;71395;43.488;1.472;2023-10-13T01:29:16;99942.94;;;26.17;50.08
81931;BME280;71395;43.488;1.472;2023-10-13T01:31:45;99930.69;;;26.14;50.75
81931;BME280;71395;43.488;1.472;2023-10-13T01:34:15;99924.03;;;26.15;50.40
81931;BME280;71395;43.488;1.472;2023-10-13T01:36:56;99924.09;;;26.19;50.33
81931;BME280;71395;43.488;1.472;2023-10-13T01:39:23;99915.38;;;26.13;51.02
81931;BME280;71395;43.488;1.472;2023-10-13T01:41:52;99924.47;;;26.17;50.28
81931;BME280;71395;43.488;1.472;2023-10-13T01:44:25;99906.25;;;26.09;50.62
81931;BME280;71395;43.488;1.472;2023-10-13T01:46:56;99900.34;;;26.07;51.52
81931;BME280;71395;43.488;1.472;2023-10-13T01:49:25;99921.28;;;26.15;50.28
81931;BME280;71395;43.488;1.472;2023-10-13T01:51:50;99911.03;;;26.12;50.48
81931;BME280;71395;43.488;1.472;2023-10-13T01:54:16;99903.97;;;26.11;50.10
81931;BME280;71395;43.488;1.472;2023-10-13T01:56:42;99909.50;;;26.15;51.00
81931;BME280;71395;43.488;1.472;2023-10-13T01:59:11;99898.00;;;26.09;50.66
81931;BME280;71395;43.488;1.472;2023-10-13T02:01:37;99894.47;;;26.09;50.28
81931;BME280;71395;43.488;1.472;2023-10-13T02:04:03;99904.38;;;26.13;50.60
81931;BME280;71395;43.488;1.472;2023-10-13T02:06:33;99896.56;;;26.15;50.30
81931;BME280;71395;43.488;1.472;2023-10-13T02:09:07;99884.22;;;26.06;50.63
81931;BME280;71395;43.488;1.472;2023-10-13T02:11:43;99888.25;;;26.12;50.59
81931;BME280;71395;43.488;1.472;2023-10-13T02:14:12;99887.47;;;26.11;50.83
81931;BME280;71395;43.488;1.472;2023-10-13T02:16:42;99888.59;;;26.10;50.20
81931;BME280;71395;43.488;1.472;2023-10-13T02:19:07;99889.78;;;26.09;50.19
81931;BME280;71395;43.488;1.472;2023-10-13T02:21:34;99876.03;;;26.09;50.60
81931;BME280;71395;43.488;1.472;2023-10-13T02:24:08;99880.38;;;26.10;49.96
81931;BME280;71395;43.488;1.472;2023-10-13T02:26:44;99869.34;;;26.07;50.23
81931;BME280;71395;43.488;1.472;2023-10-13T02:29:10;99876.47;;;26.11;50.45
81931;BME280;71395;43.488;1.472;2023-10-13T02:31:41;99869.38;;;26.10;49.97
81931;BME280;71395;43.488;1.472;2023-10-13T02:34:07;99855.53;;;26.03;50.55
81931;BME280;71395;43.488;1.472;2023-10-13T02:36:37;99867.00;;;26.09;50.13
81931;BME280;71395;43.488;1.472;2023-10-13T02:39:04;99849.25;;;26.02;50.30
81931;BME280;71395;43.488;1.472;2023-10-13T02:41:33;99860.31;;;26.06;50.65
81931;BME280;71395;43.488;1.472;2023-10-13T02:44:03;99867.78;;;26.09;50.60
81931;BME280;71395;43.488;1.472;2023-10-13T02:46:33;99858.75;;;26.09;50.81
81931;BME280;71395;43.488;1.472;2023-10-13T02:49:02;99854.06;;;26.09;50.56
81931;BME280;71395;43.488;1.472;2023-10-13T02:51:36;99854.44;;;26.08;50.80
81931;BME280;71395;43.488;1.472;2023-10-13T02:54:04;99862.66;;;26.08;50.58
81931;BME280;71395;43.488;1.472;2023-10-13T02:56:35;99838.63;;;26.01;50.51
81931;BME280;71395;43.488;1.472;2023-10-13T02:59:02;99852.47;;;26.08;50.81
81931;BME280;71395;43.488;1.472;2023-10-13T03:01:35;99846.13;;;26.04;50.21
81931;BME280;71395;43.488;1.472;2023-10-13T03:04:04;99849.63;;;26.01;50.54
81931;BME280;71395;43.488;1.472;2023-10-13T03:06:34;99846.88;;;26.01;50.04
81931;BME280;71395;43.488;1.472;2023-10-13T03:09:08;99843.38;;;26.04;49.97
81931;BME280;71395;43.488;1.472;2023-10-13T03:11:41;99838.63;;;26.01;50.39
81931;BME280;71395;43.488;1.472;2023-10-13T03:14:14;99838.66;;;26.04;50.66
81931;BME280;71395;43.488;1.472;2023-10-13T03:16:57;99837.50;;;26.06;49.95
81931;BME280;71395;43.488;1.472;2023-10-13T03:19:28;99837.88;;;26.04;50.87
81931;BME280;71395;43.488;1.472;2023-10-13T03:21:59;99819.69;;;25.96;50.04
81931;BME280;71395;43.488;1.472;2023-10-13T03:24:32;99824.44;;;25.99;50.59
81931;BME280;71395;43.488;1.472;2023-10-13T03:27:04;99822.13;;;26.01;50.10
81931;BME280;71395;43.488;1.472;2023-10-13T03:29:42;99811.47;;;25.96;50.25
81931;BME280;71395;43.488;1.472;2023-10-13T03:32:13;99819.03;;;26.02;50.05
81931;BME280;71395;43.488;1.472;2023-10-13T03:34:42;99818.53;;;25.97;50.09
81931;BME280;71395;43.488;1.472;2023-10-13T03:37:17;99820.13;;;25.98;50.13
81931;BME280;71395;43.488;1.472;2023-10-13T03:39:44;99818.16;;;25.98;50.75
81931;BME280;71395;43.488;1.472;2023-10-13T03:42:11;99812.28;;;26.00;50.43
81931;BME280;71395;43.488;1.472;2023-10-13T03:44:47;99806.44;;;26.01;49.94
81931;BME280;71395;43.488;1.472;2023-10-13T03:47:13;99801.19;;;25.93;50.43
81931;BME280;71395;43.488;1.472;2023-10-13T03:49:53;99808.75;;;25.99;50.03
81931;BME280;71395;43.488;1.472;2023-10-13T03:52:38;99800.78;;;25.91;50.27
81931;BME280;71395;43.488;1.472;2023-10-13T03:55:04;99811.09;;;25.97;50.16
81931;BME280;71395;43.488;1.472;2023-10-13T03:57:31;99798.84;;;25.95;49.85
81931;BME280;71395;43.488;1.472;2023-10-13T03:59:59;99795.31;;;25.94;50.49
81931;BME280;71395;43.488;1.472;2023-10-13T04:02:33;99800.88;;;25.98;50.64
81931;BME280;71395;43.488;1.472;2023-10-13T04:04:58;99800.47;;;25.96;50.69
81931;BME280;71395;43.488;1.472;2023-10-13T04:07:32;99790.63;;;25.95;50.27
81931;BME280;71395;43.488;1.472;2023-10-13T04:09:58;99800.88;;;25.98;50.06
81931;BME280;71395;43.488;1.472;2023-10-13T04:12:55;99795.75;;;25.96;50.44
81931;BME280;71395;43.488;1.472;2023-10-13T04:15:43;99781.09;;;25.89;49.96
81931;BME280;71395;43.488;1.472;2023-10-13T04:18:28;99796.09;;;25.95;49.80
81931;BME280;71395;43.488;1.472;2023-10-13T04:21:12;99785.88;;;25.92;50.02
81931;BME280;71395;43.488;1.472;2023-10-13T04:24:00;99782.34;;;25.91;50.27
81931;BME280;71395;43.488;1.472;2023-10-13T04:26:45;99778.78;;;25.91;50.27
81931;BME280;71395;43.488;1.472;2023-10-13T04:29:29;99785.00;;;25.88;50.30
81931;BME280;71395;43.488;1.472;2023-10-13T04:32:15;99786.59;;;25.89;50.38
81931;BME280;71395;43.488;1.472;2023-10-13T04:34:55;99788.91;;;25.87;50.38
81931;BME280;71395;43.488;1.472;2023-10-13T04:37:24;99790.91;;;25.90;49.96
81931;BME280;71395;43.488;1.472;2023-10-13T04:39:58;99792.09;;;25.89;50.12
81931;BME280;71395;43.488;1.472;2023-10-13T04:42:37;99796.00;;;25.88;50.46
81931;BME280;71395;43.488;1.472;2023-10-13T04:45:16;99788.84;;;25.83;50.35
81931;BME280;71395;43.488;1.472;2023-10-13T04:47:58;99792.09;;;25.89;49.90
81931;BME280;71395;43.488;1.472;2023-10-13T04:50:44;99794.41;;;25.87;50.44
81931;BME280;71395;43.488;1.472;2023-10-13T04:53:14;99794.41;;;25.87;50.14
81931;BME280;71395;43.488;1.472;2023-10-13T04:56:01;99798.03;;;25.91;50.68
81931;BME280;71395;43.488;1.472;2023-10-13T04:58:32;99789.28;;;25.85;50.36
81931;BME280;71395;43.488;1.472;2023-10-13T05:01:04;99795.22;;;25.87;50.47
81931;BME280;71395;43.488;1.472;2023-10-13T05:04:02;99805.81;;;25.89;50.20
81931;BME280;71395;43.488;1.472;2023-10-13T05:06:47;99803.00;;;25.85;50.18
81931;BME280;71395;43.488;1.472;2023-10-13T05:09:31;99790.00;;;25.82;50.40
81931;BME280;71395;43.488;1.472;2023-10-13T05:12:16;99794.72;;;25.82;50.09
81931;BME280;71395;43.488;1.472;2023-10-13T05:14:59;99801.34;;;25.81;50.11
81931;BME280;71395;43.488;1.472;2023-10-13T05:17:43;99794.72;;;25.82;50.24
81931;BME280;71395;43.488;1.472;2023-10-13T05:20:27;99799.03;;;25.83;50.18
81931;BME280;71395;43.488;1.472;2023-10-13T05:23:11;99789.94;;;25.78;50.33
81931;BME280;71395;43.488;1.472;2023-10-13T05:25:55;99793.94;;;25.81;50.25
81931;BME280;71395;43.488;1.472;2023-10-13T05:28:39;99788.00;;;25.79;49.98
81931;BME280;71395;43.488;1.472;2023-10-13T05:31:23;99798.25;;;25.82;50.02
81931;BME280;71395;43.488;1.472;2023-10-13T05:34:07;99789.56;;;25.80;50.68
81931;BME280;71395;43.488;1.472;2023-10-13T05:36:51;99788.78;;;25.80;50.20
81931;BME280;71395;43.488;1.472;2023-10-13T05:39:34;99790.38;;;25.81;50.33
81931;BME280;71395;43.488;1.472;2023-10-13T05:42:18;99778.53;;;25.76;50.30
81931;BME280;71395;43.488;1.472;2023-10-13T05:45:02;99782.56;;;25.83;50.80
81931;BME280;71395;43.488;1.472;2023-10-13T05:47:43;99789.94;;;25.78;50.07
81931;BME280;71395;43.488;1.472;2023-10-13T05:50:10;99793.56;;;25.83;50.30
81931;BME280;71395;43.488;1.472;2023-10-13T05:52:48;99784.81;;;25.77;50.40
81931;BME280;71395;43.488;1.472;2023-10-13T05:55:27;99786.78;;;25.76;50.36
81931;BME280;71395;43.488;1.472;2023-10-13T05:58:11;99802.16;;;25.81;50.36
81931;BME280;71395;43.488;1.472;2023-10-13T06:00:56;99799.34;;;25.77;50.46
81931;BME280;71395;43.488;1.472;2023-10-13T06:03:40;99783.13;;;25.72;50.28
81931;BME280;71395;43.488;1.472;2023-10-13T06:06:23;99795.03;;;25.76;50.57
81931;BME280;71395;43.488;1.472;2023-10-13T06:09:07;99753.34;;;25.51;50.19
81931;BME280;71395;43.488;1.472;2023-10-13T06:11:51;99799.75;;;25.80;50.55
81931;BME280;71395;43.488;1.472;2023-10-13T06:14:35;99800.03;;;25.74;50.43
81931;BME280;71395;43.488;1.472;2023-10-13T06:17:19;99802.78;;;25.74;50.56
81931;BME280;71395;43.488;1.472;2023-10-13T06:20:05;99794.53;;;25.74;50.17
81931;BME280;71395;43.488;1.472;2023-10-13T06:22:49;99809.16;;;25.78;50.15
81931;BME280;71395;43.488;1.472;2023-10-13T06:25:33;99791.78;;;25.74;50.28
81931;BME280;71395;43.488;1.472;2023-10-13T06:28:17;99801.31;;;25.77;50.59
81931;BME280;71395;43.488;1.472;2023-10-13T06:31:03;99807.22;;;25.79;50.28
81931;BME280;71395;43.488;1.472;2023-10-13T06:33:31;99801.66;;;25.75;50.34
81931;BME280;71395;43.488;1.472;2023-10-13T06:36:03;99816.63;;;25.78;50.56
81931;BME280;71395;43.488;1.472;2023-10-13T06:38:29;99810.34;;;25.77;50.41
81931;BME280;71395;43.488;1.472;2023-10-13T06:41:02;99800.34;;;25.69;50.49
81931;BME280;71395;43.488;1.472;2023-10-13T06:43:32;99812.72;;;25.79;50.35
81931;BME280;71395;43.488;1.472;2023-10-13T06:45:58;99821.72;;;25.80;51.01
81931;BME280;71395;43.488;1.472;2023-10-13T06:48:28;99821.69;;;25.76;51.33
81931;BME280;71395;43.488;1.472;2023-10-13T06:51:03;99818.94;;;25.76;51.23
81931;BME280;71395;43.488;1.472;2023-10-13T06:53:44;99815.31;;;25.72;51.43
81931;BME280;71395;43.488;1.472;2023-10-13T06:56:15;99817.69;;;25.73;52.01
81931;BME280;71395;43.488;1.472;2023-10-13T06:58:52;99816.09;;;25.72;52.39
81931;BME280;71395;43.488;1.472;2023-10-13T07:01:25;99817.97;;;25.68;53.07
81931;BME280;71395;43.488;1.472;2023-10-13T07:03:51;99821.69;;;25.76;53.02
81931;BME280;71395;43.488;1.472;2023-10-13T07:06:22;99820.00;;;25.71;53.21
81931;BME280;71395;43.488;1.472;2023-10-13T07:08:48;99834.59;;;25.75;53.97
81931;BME280;71395;43.488;1.472;2023-10-13T07:11:29;99823.16;;;25.73;53.80
81931;BME280;71395;43.488;1.472;2023-10-13T07:14:07;99834.94;;;25.74;53.56
81931;BME280;71395;43.488;1.472;2023-10-13T07:16:43;99826.38;;;25.75;53.78
81931;BME280;71395;43.488;1.472;2023-10-13T07:19:13;99841.22;;;25.74;53.99
81931;BME280;71395;43.488;1.472;2023-10-13T07:21:44;99833.38;;;25.73;54.04
81931;BME280;71395;43.488;1.472;2023-10-13T07:24:11;99831.41;;;25.73;54.43
81931;BME280;71395;43.488;1.472;2023-10-13T07:26:37;99837.69;;;25.74;54.49
81931;BME280;71395;43.488;1.472;2023-10-13T07:29:11;99839.22;;;25.71;54.59
81931;BME280;71395;43.488;1.472;2023-10-13T07:31:37;99831.00;;;25.71;55.29
81931;BME280;71395;43.488;1.472;2023-10-13T07:34:05;99836.41;;;25.68;55.07
81931;BME280;71395;43.488;1.472;2023-10-13T07:36:38;99847.47;;;25.71;55.22
81931;BME280;71395;43.488;1.472;2023-10-13T07:39:08;99836.47;;;25.71;55.24
81931;BME280;71395;43.488;1.472;2023-10-13T07:41:51;99836.47;;;25.71;55.04
81931;BME280;71395;43.488;1.472;2023-10-13T07:44:21;99838.84;;;25.73;55.22
81931;BME280;71395;43.488;1.472;2023-10-13T07:46:53;99830.25;;;25.74;55.21
81931;BME280;71395;43.488;1.472;2023-10-13T07:49:29;99843.28;;;25.77;54.96
81931;BME280;71395;43.488;1.472;2023-10-13T07:52:04;99838.97;;;25.76;55.47
81931;BME280;71395;43.488;1.472;2023-10-13T07:54:46;99838.97;;;25.76;55.50
81931;BME280;71395;43.488;1.472;2023-10-13T07:57:21;99843.66;;;25.76;55.59
81931;BME280;71395;43.488;1.472;2023-10-13T07:59:54;99850.78;;;25.81;55.16
81931;BME280;71395;43.488;1.472;2023-10-13T08:02:31;99850.78;;;25.81;55.46
81931;BME280;71395;43.488;1.472;2023-10-13T08:05:17;99851.94;;;25.80;55.30
81931;BME280;71395;43.488;1.472;2023-10-13T08:08:05;99855.84;;;25.78;55.88
81931;BME280;71395;43.488;1.472;2023-10-13T08:10:40;99856.56;;;25.75;55.97
81931;BME280;71395;43.488;1.472;2023-10-13T08:13:07;99856.56;;;25.75;55.85
81931;BME280;71395;43.488;1.472;2023-10-13T08:15:40;99853.09;;;25.78;55.58
81931;BME280;71395;43.488;1.472;2023-10-13T08:18:12;99865.75;;;25.83;55.51
81931;BME280;71395;43.488;1.472;2023-10-13T08:20:45;99867.34;;;25.84;55.76
81931;BME280;71395;43.488;1.472;2023-10-13T08:23:11;99858.69;;;25.82;55.71
81931;BME280;71395;43.488;1.472;2023-10-13T08:25:40;99850.78;;;25.81;55.86
81931;BME280;71395;43.488;1.472;2023-10-13T08:28:24;99849.03;;;25.72;56.36
81931;BME280;71395;43.488;1.472;2023-10-13T08:31:10;99860.34;;;25.87;55.95
81931;BME280;71395;43.488;1.472;2023-10-13T08:33:48;99862.00;;;25.91;55.80
81931;BME280;71395;43.488;1.472;2023-10-13T08:36:14;99843.84;;;25.87;55.89
81931;BME280;71395;43.488;1.472;2023-10-13T08:38:56;99854.97;;;25.94;56.27
81931;BME280;71395;43.488;1.472;2023-10-13T08:41:25;99844.28;;;25.89;56.06
81931;BME280;71395;43.488;1.472;2023-10-13T08:43:54;99846.31;;;25.92;56.28
81931;BME280;71395;43.488;1.472;2023-10-13T08:46:30;99844.84;;;25.98;56.23
81931;BME280;71395;43.488;1.472;2023-10-13T08:48:59;99832.97;;;25.94;56.30
81931;BME280;71395;43.488;1.472;2023-10-13T08:51:41;99852.28;;;25.97;56.88
81931;BME280;71395;43.488;1.472;2023-10-13T08:54:14;99826.78;;;25.97;56.14
81931;BME280;71395;43.488;1.472;2023-10-13T08:57:00;99825.97;;;25.96;56.09
81931;BME280;71395;43.488;1.472;2023-10-13T08:59:31;99839.41;;;26.01;56.17
81931;BME280;71395;43.488;1.472;2023-10-13T09:02:15;99831.19;;;26.01;55.75
81931;BME280;71395;43.488;1.472;2023-10-13T09:04:44;99825.31;;;26.03;56.35
81931;BME280;71395;43.488;1.472;2023-10-13T09:07:10;99831.66;;;26.07;56.14
81931;BME280;71395;43.488;1.472;2023-10-13T09:09:48;99811.56;;;26.03;56.31
81931;BME280;71395;43.488;1.472;2023-10-13T09:12:19;99815.16;;;26.07;56.63
81931;BME280;71395;43.488;1.472;2023-10-13T09:14:55;99822.25;;;26.08;56.59
81931;BME280;71395;43.488;1.472;2023-10-13T09:17:25;99830.56;;;26.12;56.54
81931;BME280;71395;43.488;1.472;2023-10-13T09:20:09;99821.94;;;26.13;56.60
81931;BME280;71395;43.488;1.472;2023-10-13T09:22:48;99816.75;;;26.08;56.90
81931;BME280;71395;43.488;1.472;2023-10-13T09:25:34;99833.34;;;26.15;56.92
81931;BME280;71395;43.488;1.472;2023-10-13T09:28:14;99821.53;;;26.11;56.43
81931;BME280;71395;43.488;1.472;2023-10-13T09:30:54;99823.22;;;26.19;56.57
81931;BME280;71395;43.488;1.472;2023-10-13T09:33:25;99829.47;;;26.16;56.24
81931;BME280;71395;43.488;1.472;2023-10-13T09:35:58;99832.63;;;26.18;56.69
81931;BME280;71395;43.488;1.472;2023-10-13T09:38:27;99828.72;;;26.19;56.59
81931;BME280;71395;43.488;1.472;2023-10-13T09:40:53;99830.38;;;26.24;56.26
81931;BME280;71395;43.488;1.472;2023-10-13T09:43:25;99828.41;;;26.24;56.66
81931;BME280;71395;43.488;1.472;2023-10-13T09:45:58;99824.16;;;26.27;56.28
81931;BME280;71395;43.488;1.472;2023-10-13T09:48:37;99825.72;;;26.28;55.95
81931;BME280;71395;43.488;1.472;2023-10-13T09:51:12;99825.72;;;26.28;56.50
81931;BME280;71395;43.488;1.472;2023-10-13T09:53:39;99821.75;;;26.25;56.88
81931;BME280;71395;43.488;1.472;2023-10-13T09:56:12;99836.78;;;26.32;56.19
81931;BME280;71395;43.488;1.472;2023-10-13T09:58:57;99817.72;;;26.19;55.87
81931;BME280;71395;43.488;1.472;2023-10-13T10:01:29;99837.50;;;26.28;56.04
81931;BME280;71395;43.488;1.472;2023-10-13T10:04:09;99827.63;;;26.24;55.37
81931;BME280;71395;43.488;1.472;2023-10-13T10:06:39;99821.22;;;26.16;55.65
81931;BME280;71395;43.488;1.472;2023-10-13T10:09:10;99823.53;;;26.14;55.10
81931;BME280;71395;43.488;1.472;2023-10-13T10:12:08;99828.31;;;26.17;55.01
81931;BME280;71395;43.488;1.472;2023-10-13T10:17:41;99819.88;;;26.07;55.19
81931;BME280;71395;43.488;1.472;2023-10-13T10:20:07;99829.31;;;26.09;55.90
81931;BME280;71395;43.488;1.472;2023-10-13T10:22:58;99822.63;;;26.07;54.69
81931;BME280;71395;43.488;1.472;2023-10-13T10:25:33;99822.97;;;26.05;55.47
81931;BME280;71395;43.488;1.472;2023-10-13T10:28:07;99824.88;;;26.01;54.94
81931;BME280;71395;43.488;1.472;2023-10-13T10:30:34;99820.53;;;26.00;55.08
81931;BME280;71395;43.488;1.472;2023-10-13T10:33:01;99812.72;;;26.02;55.12
81931;BME280;71395;43.488;1.472;2023-10-13T10:35:38;99816.66;;;26.01;54.58
81931;BME280;71395;43.488;1.472;2023-10-13T10:38:11;99803.75;;;26.05;54.32
81931;BME280;71395;43.488;1.472;2023-10-13T10:41:02;99814.38;;;26.07;54.71
81931;BME280;71395;43.488;1.472;2023-10-13T10:46:17;99815.91;;;26.04;54.02
81931;BME280;71395;43.488;1.472;2023-10-13T10:48:44;99811.97;;;26.05;53.95
81931;BME280;71395;43.488;1.472;2023-10-13T10:51:11;99823.09;;;26.12;54.36
81931;BME280;71395;43.488;1.472;2023-10-13T10:53:50;99823.84;;;26.09;53.86
81931;BME280;71395;43.488;1.472;2023-10-13T10:56:18;99815.16;;;26.07;53.48
81931;BME280;71395;43.488;1.472;2023-10-13T10:59:06;99823.97;;;26.16;53.17
81931;BME280;71395;43.488;1.472;2023-10-13T11:01:45;99810.53;;;26.11;53.59
81931;BME280;71395;43.488;1.472;2023-10-13T11:04:16;99832.63;;;26.18;53.80
81931;BME280;71395;43.488;1.472;2023-10-13T11:06:52;99810.94;;;26.13;52.78
81931;BME280;71395;43.488;1.472;2023-10-13T11:09:25;99811.81;;;26.17;53.09
81931;BME280;71395;43.488;1.472;2023-10-13T11:11:52;99812.19;;;26.16;52.76
81931;BME280;71395;43.488;1.472;2023-10-13T11:14:23;99809.91;;;26.21;53.48
81931;BME280;71395;43.488;1.472;2023-10-13T11:16:49;99814.97;;;26.19;53.02
81931;BME280;71395;43.488;1.472;2023-10-13T11:19:41;99811.50;;;26.22;53.25
81931;BME280;71395;43.488;1.472;2023-10-13T11:22:14;99777.06;;;26.06;53.34
81931;BME280;71395;43.488;1.472;2023-10-13T11:25:00;99787.81;;;26.14;53.00
81931;BME280;71395;43.488;1.472;2023-10-13T11:27:32;99803.25;;;26.22;53.16
81931;BME280;71395;43.488;1.472;2023-10-13T11:30:18;99796.03;;;26.14;52.40
81931;BME280;71395;43.488;1.472;2023-10-13T11:35:23;99790.25;;;26.19;52.39
81931;BME280;71395;43.488;1.472;2023-10-13T11:37:52;99787.19;;;26.24;52.57
81931;BME280;71395;43.488;1.472;2023-10-13T11:40:38;99785.19;;;26.21;52.85
81931;BME280;71395;43.488;1.472;2023-10-13T11:43:24;99777.59;;;26.15;52.90
81931;BME280;71395;43.488;1.472;2023-10-13T11:45:50;99794.25;;;26.25;52.96
81931;BME280;71395;43.488;1.472;2023-10-13T11:48:41;99769.84;;;26.20;52.46
81931;BME280;71395;43.488;1.472;2023-10-13T11:51:11;99763.13;;;26.18;52.47
81931;BME280;71395;43.488;1.472;2023-10-13T11:53:49;99773.81;;;26.23;52.21
81931;BME280;71395;43.488;1.472;2023-10-13T11:56:18;99769.13;;;26.23;52.70
81931;BME280;71395;43.488;1.472;2023-10-13T11:58:46;99768.72;;;26.25;52.96
81931;BME280;71395;43.488;1.472;2023-10-13T12:01:13;99766.44;;;26.27;52.80
81931;BME280;71395;43.488;1.472;2023-10-13T12:03:42;99758.50;;;26.22;52.57
81931;BME280;71395;43.488;1.472;2023-10-13T12:06:30;99758.19;;;26.27;52.88
81931;BME280;71395;43.488;1.472;2023-10-13T12:11:47;99755.84;;;26.29;53.26
81931;BME280;71395;43.488;1.472;2023-10-13T12:14:16;99759.81;;;26.32;53.49
81931;BME280;71395;43.488;1.472;2023-10-13T12:16:49;99740.84;;;26.23;53.29
81931;BME280;71395;43.488;1.472;2023-10-13T12:19:24;99753.56;;;26.35;52.63
81931;BME280;71395;43.488;1.472;2023-10-13T12:21:55;99756.31;;;26.35;52.70
81931;BME280;71395;43.488;1.472;2023-10-13T12:24:30;99746.09;;;26.32;53.26
81931;BME280;71395;43.488;1.472;2023-10-13T12:27:02;99748.88;;;26.35;53.39
81931;BME280;71395;43.488;1.472;2023-10-13T12:29:28;99739.41;;;26.33;53.07
81931;BME280;71395;43.488;1.472;2023-10-13T12:31:57;99744.59;;;26.38;53.11
81931;BME280;71395;43.488;1.472;2023-10-13T12:34:38;99736.28;;;26.34;52.97
81931;BME280;71395;43.488;1.472;2023-10-13T12:37:23;99731.59;;;26.35;52.54
81931;BME280;71395;43.488;1.472;2023-10-13T12:40:09;99726.88;;;26.35;52.68
81931;BME280;71395;43.488;1.472;2023-10-13T12:42:53;99724.97;;;26.39;53.21
81931;BME280;71395;43.488;1.472;2023-10-13T12:45:45;99710.44;;;26.39;52.76
81931;BME280;71395;43.488;1.472;2023-10-13T12:48:30;99717.97;;;26.42;52.30
81931;BME280;71395;43.488;1.472;2023-10-13T12:51:15;99725.41;;;26.41;52.44
81931;BME280;71395;43.488;1.472;2023-10-13T12:53:54;99709.34;;;26.43;53.01
81931;BME280;71395;43.488;1.472;2023-10-13T12:56:21;99714.47;;;26.45;52.00
81931;BME280;71395;43.488;1.472;2023-10-13T12:58:53;99715.22;;;26.42;52.08
81931;BME280;71395;43.488;1.472;2023-10-13T13:01:20;99706.66;;;26.47;51.82
81931;BME280;71395;43.488;1.472;2023-10-13T13:03:49;99702.28;;;26.42;52.02
81931;BME280;71395;43.488;1.472;2023-10-13T13:06:19;99698.81;;;26.49;51.55
81931;BME280;71395;43.488;1.472;2023-10-13T13:08:55;99705.50;;;26.48;51.85
81931;BME280;71395;43.488;1.472;2023-10-13T13:11:21;99700.41;;;26.50;51.79
81931;BME280;71395;43.488;1.472;2023-10-13T13:13:47;99710.25;;;26.51;51.32
81931;BME280;71395;43.488;1.472;2023-10-13T13:16:16;99687.78;;;26.45;50.98
81931;BME280;71395;43.488;1.472;2023-10-13T13:18:49;99704.28;;;26.45;50.63
81931;BME280;71395;43.488;1.472;2023-10-13T13:21:14;99680.13;;;26.32;51.26
81931;BME280;71395;43.488;1.472;2023-10-13T13:23:51;99691.81;;;26.51;50.55
81931;BME280;71395;43.488;1.472;2023-10-13T13:26:23;99683.88;;;26.46;50.84
81931;BME280;71395;43.488;1.472;2023-10-13T13:28:49;99687.50;;;26.54;51.19
81931;BME280;71395;43.488;1.472;2023-10-13T13:31:18;99680.84;;;26.55;50.27
81931;BME280;71395;43.488;1.472;2023-10-13T13:33:44;99684.34;;;26.52;51.02
81931;BME280;71395;43.488;1.472;2023-10-13T13:36:10;99673.69;;;26.50;50.32
81931;BME280;71395;43.488;1.472;2023-10-13T13:38:39;99681.66;;;26.56;50.23
81931;BME280;71395;43.488;1.472;2023-10-13T13:41:14;99677.69;;;26.53;50.07
81931;BME280;71395;43.488;1.472;2023-10-13T13:43:44;99678.94;;;26.59;50.51
81931;BME280;71395;43.488;1.472;2023-10-13T13:46:19;99672.22;;;26.57;50.47
81931;BME280;71395;43.488;1.472;2023-10-13T13:48:50;99678.19;;;26.62;49.82
81931;BME280;71395;43.488;1.472;2023-10-13T13:51:17;99670.72;;;26.63;49.87